Ventura, CA

6:05 AM PST on February 10, 2016 (GMT -0800)
Elmhurst | | Change Station
CLOSE
Current Station
Personal Weather Station
Location: Ventura, CA
Elevation: 259 ft
Nearby Weather Stations

Elev 259 ft 34.27 °N, 119.22 °W | Updated 5 seconds ago

Clear
Clear
68.0 °F
Feels Like 68.0 °F
N
1.1
Wind Variable Wind from NE
Gusts 2.5 mph

Today
High -- | Low -- °F
--% Chance of Precip.
Yesterday
High -- | Low -- °F
Precip. -- in
Pressure 30.11 in
Visibility 10.0 miles
Clouds Clear
Dew Point 24 °F
Humidity 19%
Rainfall 0.00 in
Snow Depth Not available.
6:47 AM 5:35 PM
Waxing Crescent, 5% visible
METAR KOXR 101351Z AUTO 04012KT 10SM CLR 18/M03 A3011 RMK AO2 SLP195 T01781028
Pressure 30.11 in
Visibility 10.0 miles
Clouds Clear
Dew Point 24 °F
Humidity 19%
Rainfall 0.00 in
Snow Depth Not available.
6:47 AM 5:35 PM
Waxing Crescent, 5% visible
METAR KOXR 101351Z AUTO 04012KT 10SM CLR 18/M03 A3011 RMK AO2 SLP195 T01781028

10-Day Weather Forecast

Almanac

Astronomy

Feb. 10, 2016 Rise Set
Actual Time
Civil Twilight
Nautical Twilight
Astronomical Twilight
Moon
Length of Visible Light
Length of Day
Tomorrow will be .
, % of the Moon is Illuminated

Today's Extremes

State Highs State Lows

Community

WunderPhotos

Upload Photos

1,891,846 photos uploaded!

WunderBlog® & News

Nearby

Air Quality

  Air Quality AQ Index Pollutant
Not available.

Snow Depth

Station Depth Elevation

Earthquake Activity

City Distance Mag. Time & Date
Minimum magnitude displayed is 2.5.

Coastal Water Temperatures

Place Temperature

Stations

Nearby Weather Stations

Station Location Temp. Windchill Dew Point Humidity Wind Precip. Elev Updated Type
                   

Watches & Warnings

There are currently no watches in effect.